Time;durP1;ratioP1;P1;durP2;ratioP2;P2;SDS_P1;SDS_P2;PMS_P1;PMS_P2;Temp;Humidity;BMP_temperature;BMP_pressure;BME280_temperature;BME280_humidity;BME280_pressure;Samples;Min_cycle;Max_cycle;Signal;HPM_P1;HPM_P2
2020/12/01 00:00:42;;;;;;;11.40;6.57;;;7.80;99.90;;;;;;5071770;28;20346;-79
2020/12/01 00:03:09;;;;;;;11.87;6.30;;;7.80;99.90;;;;;;5084433;28;20290;-78
2020/12/01 00:05:36;;;;;;;12.20;4.57;;;7.70;99.90;;;;;;5051985;28;20226;-78
2020/12/01 00:08:03;;;;;;;6.97;2.23;;;7.80;99.90;;;;;;5070484;28;20249;-78
2020/12/01 00:10:34;;;;;;;6.33;1.30;;;7.70;99.90;;;;;;5080767;28;20190;-78
2020/12/01 00:13:01;;;;;;;1.23;0.60;;;7.70;99.90;;;;;;5087251;28;20252;-78
2020/12/01 00:15:27;;;;;;;2.83;0.70;;;7.70;99.90;;;;;;5087290;28;20206;-78
2020/12/01 00:17:54;;;;;;;2.57;0.87;;;7.80;99.90;;;;;;5084227;28;20271;-78
2020/12/01 00:20:22;;;;;;;3.70;0.60;;;7.70;99.90;;;;;;5068328;28;20223;-78
2020/12/01 00:22:49;;;;;;;1.47;0.70;;;7.60;99.90;;;;;;5088201;28;20207;-78
2020/12/01 00:25:16;;;;;;;10.20;1.03;;;7.60;99.90;;;;;;5051737;28;20249;-78
2020/12/01 00:27:43;;;;;;;4.80;1.10;;;7.60;99.90;;;;;;5087627;28;20259;-78
2020/12/01 00:30:20;;;;;;;5.30;0.80;;;7.60;99.90;;;;;;5086495;28;20197;-78
2020/12/01 00:32:47;;;;;;;1.07;0.50;;;7.60;99.90;;;;;;5083029;28;20226;-78
2020/12/01 00:35:17;;;;;;;1.23;0.50;;;7.60;99.90;;;;;;5079455;28;20248;-78
2020/12/01 00:37:43;;;;;;;1.50;0.40;;;7.60;99.90;;;;;;5087367;28;20214;-80
2020/12/01 00:40:13;;;;;;;1.27;0.50;;;7.60;99.90;;;;;;5084536;28;20289;-78
2020/12/01 00:42:40;;;;;;;5.30;0.93;;;7.60;99.90;;;;;;5081336;28;20252;-78
2020/12/01 00:45:08;;;;;;;3.60;0.63;;;7.60;99.90;;;;;;5085457;28;20207;-78
2020/12/01 00:47:35;;;;;;;3.50;0.77;;;7.60;99.90;;;;;;5087431;28;20653;-77
2020/12/01 00:50:03;;;;;;;1.70;0.40;;;7.50;99.90;;;;;;5082868;28;20242;-77
2020/12/01 00:52:30;;;;;;;2.70;0.73;;;7.50;99.90;;;;;;5085959;28;20572;-78
2020/12/01 00:54:57;;;;;;;2.93;0.70;;;7.50;99.90;;;;;;5052611;28;20191;-77
2020/12/01 00:57:23;;;;;;;4.23;1.17;;;7.50;99.90;;;;;;5079545;28;20238;-78
2020/12/01 00:59:49;;;;;;;3.00;0.70;;;7.50;99.90;;;;;;5072321;28;20195;-78
2020/12/01 01:02:15;;;;;;;4.97;0.90;;;7.50;99.90;;;;;;5088859;28;20677;-79
2020/12/01 01:04:42;;;;;;;2.27;0.60;;;7.50;99.90;;;;;;5067859;28;20286;-77
2020/12/01 01:07:08;;;;;;;1.47;0.60;;;7.50;99.90;;;;;;5092837;28;20217;-77
2020/12/01 01:09:35;;;;;;;2.43;0.73;;;7.60;99.90;;;;;;5068656;28;20626;-77
2020/12/01 01:12:01;;;;;;;6.60;1.07;;;7.60;99.90;;;;;;5086097;28;20199;-78
2020/12/01 01:14:27;;;;;;;2.20;1.33;;;7.50;99.90;;;;;;5068680;28;20199;-78
2020/12/01 01:16:54;;;;;;;6.23;0.97;;;7.60;99.90;;;;;;5089870;28;20394;-81
2020/12/01 01:19:20;;;;;;;2.80;0.80;;;7.60;99.90;;;;;;5073595;28;20224;-80
2020/12/01 01:21:48;;;;;;;4.67;0.80;;;7.60;99.90;;;;;;5066859;28;20285;-79
2020/12/01 01:24:17;;;;;;;8.93;1.00;;;7.60;99.90;;;;;;5092714;28;20223;-77
2020/12/01 01:26:54;;;;;;;4.23;0.60;;;7.70;99.90;;;;;;5086425;28;20191;-79
2020/12/01 01:29:23;;;;;;;6.93;1.30;;;7.70;99.90;;;;;;5071968;28;20246;-79
2020/12/01 01:31:53;;;;;;;5.77;0.83;;;7.70;99.90;;;;;;5087890;28;20251;-79
2020/12/01 01:34:20;;;;;;;3.90;0.77;;;7.70;99.90;;;;;;5066272;28;20283;-78
2020/12/01 01:36:47;;;;;;;5.63;1.00;;;7.80;99.90;;;;;;5068725;28;20195;-79
2020/12/01 01:39:13;;;;;;;5.80;1.07;;;7.70;99.90;;;;;;5081550;28;20795;-79
2020/12/01 01:41:40;;;;;;;7.13;1.80;;;7.80;99.90;;;;;;5090032;28;20204;-79
2020/12/01 01:44:20;;;;;;;4.33;0.90;;;7.70;99.90;;;;;;5079772;28;20633;-79
2020/12/01 01:46:51;;;;;;;7.80;1.97;;;7.80;99.90;;;;;;5080810;28;20223;-78
2020/12/01 01:49:21;;;;;;;4.23;1.07;;;7.80;99.90;;;;;;5078995;28;20242;-79
2020/12/01 01:51:53;;;;;;;8.13;1.30;;;7.90;99.90;;;;;;5085119;28;20235;-78
2020/12/01 01:54:22;;;;;;;6.53;1.10;;;7.90;99.90;;;;;;5084835;28;20209;-78
2020/12/01 01:56:54;;;;;;;4.53;1.10;;;7.90;99.90;;;;;;5083001;28;20260;-80
2020/12/01 01:59:21;;;;;;;5.80;0.70;;;7.90;99.90;;;;;;5086222;28;20297;-78
2020/12/01 02:01:49;;;;;;;6.50;1.10;;;7.90;99.90;;;;;;5073010;28;20238;-78
2020/12/01 02:04:16;;;;;;;7.20;1.40;;;7.90;99.90;;;;;;5082726;28;20295;-77
2020/12/01 02:06:50;;;;;;;6.97;1.30;;;7.90;99.90;;;;;;5086126;28;20202;-78
2020/12/01 02:09:38;;;;;;;10.63;1.30;;;7.90;99.90;;;;;;5085291;28;20325;-77
2020/12/01 02:12:05;;;;;;;15.33;2.10;;;7.90;99.90;;;;;;5088243;28;20222;-77
2020/12/01 02:14:36;;;;;;;6.90;1.30;;;7.90;99.90;;;;;;5070862;28;20298;-78
2020/12/01 02:17:17;;;;;;;9.40;1.87;;;7.90;99.90;;;;;;5103956;27;20245;-78
2020/12/01 02:19:44;;;;;;;7.00;1.60;;;7.90;99.90;;;;;;5089549;28;20281;-78
2020/12/01 02:22:17;;;;;;;9.80;1.77;;;7.90;99.90;;;;;;5072945;28;20324;-78
2020/12/01 02:24:44;;;;;;;6.50;1.30;;;7.90;99.90;;;;;;5088561;28;20241;-78
2020/12/01 02:27:13;;;;;;;6.90;1.30;;;7.90;99.90;;;;;;5087915;28;20719;-79
2020/12/01 02:29:44;;;;;;;9.63;1.63;;;7.90;99.90;;;;;;5082037;28;20708;-78
2020/12/01 02:32:12;;;;;;;13.23;1.70;;;7.90;99.90;;;;;;5085537;28;20570;-79
2020/12/01 02:34:42;;;;;;;13.20;3.10;;;8.00;99.90;;;;;;5086599;28;20267;-79
2020/12/01 02:37:10;;;;;;;12.90;2.57;;;7.90;99.90;;;;;;5084482;28;20199;-80
2020/12/01 02:39:37;;;;;;;9.73;1.23;;;7.90;99.90;;;;;;5087667;28;20301;-78
2020/12/01 02:42:11;;;;;;;14.70;1.83;;;7.90;99.90;;;;;;5089647;28;20234;-78
2020/12/01 02:44:38;;;;;;;10.37;2.00;;;7.90;99.90;;;;;;5087785;28;20224;-78
2020/12/01 02:47:05;;;;;;;7.00;1.83;;;7.90;99.90;;;;;;5084587;28;20211;-78
2020/12/01 02:49:33;;;;;;;10.10;1.70;;;7.90;99.90;;;;;;5082670;28;20273;-78
2020/12/01 02:51:59;;;;;;;7.73;2.27;;;7.80;99.90;;;;;;5086985;28;20195;-78
2020/12/01 02:54:26;;;;;;;15.97;2.30;;;7.80;99.90;;;;;;5060692;28;20231;-78
2020/12/01 02:56:52;;;;;;;10.90;1.87;;;7.80;99.90;;;;;;5074683;28;20591;-78
2020/12/01 02:59:19;;;;;;;8.50;1.40;;;7.90;99.90;;;;;;5083316;28;20249;-78
2020/12/01 03:01:46;;;;;;;17.23;1.77;;;7.90;99.90;;;;;;5084807;28;20283;-77
2020/12/01 03:04:13;;;;;;;8.80;1.77;;;7.80;99.90;;;;;;5087239;28;20194;-78
2020/12/01 03:06:40;;;;;;;14.83;2.40;;;7.90;99.90;;;;;;5081588;28;20687;-78
2020/12/01 03:09:09;;;;;;;12.20;1.90;;;7.90;99.90;;;;;;5055135;28;20235;-77
2020/12/01 03:11:35;;;;;;;12.23;2.07;;;7.90;99.90;;;;;;5083642;28;20210;-78
2020/12/01 03:14:03;;;;;;;8.67;1.43;;;8.00;99.90;;;;;;5089015;28;20198;-78
2020/12/01 03:16:29;;;;;;;11.17;1.43;;;8.00;99.90;;;;;;5082674;28;20643;-78
2020/12/01 03:18:56;;;;;;;7.73;2.10;;;8.00;99.90;;;;;;5068320;28;20273;-77
2020/12/01 03:21:22;;;;;;;6.30;1.13;;;8.00;99.90;;;;;;5069761;28;20282;-77
2020/12/01 03:23:49;;;;;;;11.07;3.30;;;7.90;99.90;;;;;;5082016;28;20223;-77
2020/12/01 03:26:17;;;;;;;4.70;1.63;;;8.00;99.90;;;;;;5088087;28;20228;-77
2020/12/01 03:28:45;;;;;;;8.13;1.30;;;8.00;99.90;;;;;;5068213;28;20243;-78
2020/12/01 03:31:13;;;;;;;8.90;1.97;;;8.00;99.90;;;;;;5087436;28;20213;-78
2020/12/01 03:33:39;;;;;;;12.23;1.20;;;8.10;99.90;;;;;;5084008;28;20218;-77
2020/12/01 03:36:06;;;;;;;8.70;2.17;;;8.10;99.90;;;;;;5067506;28;20268;-78
2020/12/01 03:38:33;;;;;;;5.33;1.43;;;8.10;99.90;;;;;;5086835;28;20207;-77
2020/12/01 03:40:59;;;;;;;5.33;1.10;;;8.10;99.90;;;;;;5079993;28;20288;-78
2020/12/01 03:43:25;;;;;;;8.67;1.60;;;8.10;99.90;;;;;;5049050;28;20219;-78
2020/12/01 03:45:52;;;;;;;5.50;1.10;;;8.00;99.90;;;;;;5049389;28;20202;-78
2020/12/01 03:48:19;;;;;;;11.00;1.50;;;8.00;99.90;;;;;;5088976;28;20311;-79
2020/12/01 03:50:45;;;;;;;9.80;2.00;;;8.00;99.90;;;;;;5084380;28;20198;-78
2020/12/01 03:53:11;;;;;;;3.10;0.90;;;8.00;99.90;;;;;;5087107;28;20249;-78
2020/12/01 03:55:38;;;;;;;6.60;1.60;;;8.00;99.90;;;;;;5085247;28;20204;-78
2020/12/01 03:58:04;;;;;;;5.70;1.07;;;7.90;99.90;;;;;;5069555;28;21007;-78
2020/12/01 04:00:31;;;;;;;7.60;1.20;;;7.90;99.90;;;;;;5086767;28;20282;-77
2020/12/01 04:02:58;;;;;;;6.37;1.27;;;7.80;99.90;;;;;;5081420;28;20238;-77
2020/12/01 04:05:28;;;;;;;8.33;1.23;;;7.80;99.90;;;;;;5071701;28;20202;-78
2020/12/01 04:07:55;;;;;;;3.93;0.93;;;7.90;99.90;;;;;;5086911;28;20206;-79
2020/12/01 04:10:25;;;;;;;8.50;1.13;;;7.80;99.90;;;;;;5066321;28;20215;-78
2020/12/01 04:12:52;;;;;;;6.03;0.90;;;7.80;99.90;;;;;;5061507;28;20270;-77
2020/12/01 04:15:21;;;;;;;6.43;1.40;;;7.80;99.90;;;;;;5049282;28;20280;-77
2020/12/01 04:17:48;;;;;;;4.27;0.80;;;7.90;99.90;;;;;;5043805;28;20223;-77
2020/12/01 04:20:14;;;;;;;5.57;1.00;;;7.90;99.90;;;;;;5060333;28;20253;-77
2020/12/01 04:22:43;;;;;;;5.37;0.83;;;7.90;99.90;;;;;;5064534;28;20300;-77
2020/12/01 04:25:09;;;;;;;8.03;0.80;;;7.90;99.90;;;;;;5062336;28;20199;-77
2020/12/01 04:27:37;;;;;;;5.30;1.07;;;7.90;99.90;;;;;;5064376;28;20659;-77
2020/12/01 04:30:07;;;;;;;2.73;1.13;;;7.90;99.90;;;;;;5037391;28;20215;-77
2020/12/01 04:32:33;;;;;;;2.27;0.63;;;7.80;99.90;;;;;;5064947;28;20205;-77
2020/12/01 04:35:00;;;;;;;4.93;0.67;;;7.70;99.90;;;;;;5062968;28;20525;-77
2020/12/01 04:37:26;;;;;;;8.27;1.13;;;7.60;99.90;;;;;;5052263;28;20253;-77
2020/12/01 04:39:53;;;;;;;6.10;0.97;;;7.60;99.90;;;;;;5053927;28;20204;-78
2020/12/01 04:42:22;;;;;;;7.97;1.43;;;7.70;99.90;;;;;;5063859;28;20238;-79
2020/12/01 04:45:08;;;;;;;3.80;1.10;;;7.80;99.90;;;;;;5066961;28;20266;-79
2020/12/01 04:48:05;;;;;;;4.87;1.03;;;7.70;99.90;;;;;;5072128;28;20243;-77
2020/12/01 04:50:42;;;;;;;4.63;0.97;;;7.70;99.90;;;;;;5064485;28;20246;-78
2020/12/01 04:53:30;;;;;;;9.80;1.23;;;7.70;99.90;;;;;;5068053;28;20369;-78
2020/12/01 04:56:18;;;;;;;5.70;0.80;;;7.70;99.90;;;;;;5067017;28;20265;-78
2020/12/01 04:58:50;;;;;;;4.60;0.53;;;7.70;99.90;;;;;;5064944;28;20216;-78
2020/12/01 05:01:33;;;;;;;4.90;0.60;;;7.80;99.90;;;;;;5062416;28;20211;-78
2020/12/01 05:04:47;;;;;;;1.43;0.50;;;7.90;99.90;;;;;;5058722;28;20209;-78
2020/12/01 05:07:50;;;;;;;7.33;1.13;;;7.80;99.90;;;;;;5062716;28;20191;-78
2020/12/01 05:10:19;;;;;;;2.83;1.07;;;7.80;99.90;;;;;;5086954;28;20229;-79
2020/12/01 05:12:57;;;;;;;5.70;0.97;;;7.90;99.90;;;;;;5091702;28;20187;-78
2020/12/01 05:15:32;;;;;;;8.83;1.30;;;7.90;99.90;;;;;;5092852;28;20195;-78
2020/12/01 05:18:26;;;;;;;3.13;0.53;;;8.00;99.90;;;;;;5089462;28;20232;-79
2020/12/01 05:20:59;;;;;;;3.10;0.73;;;7.90;99.90;;;;;;5094554;28;20221;-79
2020/12/01 05:23:39;;;;;;;3.70;0.80;;;8.00;99.90;;;;;;5089423;28;20253;-78
2020/12/01 05:26:08;;;;;;;3.80;0.90;;;8.00;99.90;;;;;;5088503;28;20203;-78
2020/12/01 05:28:55;;;;;;;2.10;1.53;;;7.90;99.90;;;;;;5084903;28;20619;-78
2020/12/01 05:31:37;;;;;;;8.80;1.53;;;7.90;99.90;;;;;;5083967;28;20187;-79
2020/12/01 05:34:06;;;;;;;1.63;0.70;;;8.10;99.90;;;;;;5085653;28;20213;-78
2020/12/01 05:36:38;;;;;;;7.20;1.07;;;8.20;99.90;;;;;;5090745;28;20285;-80
2020/12/01 05:39:18;;;;;;;9.63;1.30;;;8.10;99.90;;;;;;5069553;28;20202;-80
2020/12/01 05:41:47;;;;;;;6.53;1.10;;;8.10;99.90;;;;;;5090926;28;20244;-80
2020/12/01 05:44:23;;;;;;;3.77;1.10;;;8.10;99.90;;;;;;5086539;28;20268;-80
2020/12/01 05:47:05;;;;;;;3.73;0.83;;;8.10;99.90;;;;;;5092651;28;20206;-80
2020/12/01 05:49:43;;;;;;;4.40;1.47;;;8.20;99.90;;;;;;5083132;28;20238;-79
2020/12/01 05:52:21;;;;;;;2.83;1.50;;;8.20;99.90;;;;;;5089801;28;20195;-79
2020/12/01 05:55:08;;;;;;;2.97;1.20;;;8.20;99.90;;;;;;5090173;28;20280;-79
2020/12/01 05:57:35;;;;;;;6.13;2.00;;;8.20;99.90;;;;;;5089572;28;20188;-80
2020/12/01 06:00:16;;;;;;;4.07;1.60;;;8.30;99.90;;;;;;5088734;28;20211;-80
2020/12/01 06:02:45;;;;;;;4.57;1.87;;;8.30;99.90;;;;;;5085638;28;20295;-79
2020/12/01 06:05:16;;;;;;;7.57;2.37;;;8.30;99.90;;;;;;5086251;28;20215;-79
2020/12/01 06:07:47;;;;;;;5.23;2.13;;;8.40;99.90;;;;;;5088038;28;20244;-79
2020/12/01 06:10:24;;;;;;;6.50;2.07;;;8.40;99.90;;;;;;5089085;28;20306;-79
2020/12/01 06:13:15;;;;;;;5.90;2.30;;;8.40;99.90;;;;;;5088599;28;20275;-79
2020/12/01 06:16:12;;;;;;;3.90;2.00;;;8.30;99.90;;;;;;5090008;28;20203;-81
2020/12/01 06:18:55;;;;;;;4.90;1.63;;;8.30;99.90;;;;;;5087314;28;20207;-80
2020/12/01 06:21:53;;;;;;;2.93;1.97;;;8.40;99.90;;;;;;5083188;28;20505;-80
2020/12/01 06:24:57;;;;;;;5.03;1.60;;;8.40;99.90;;;;;;5085361;28;20256;-80
2020/12/01 06:27:35;;;;;;;3.50;1.60;;;8.40;99.90;;;;;;5088847;28;20202;-80
2020/12/01 06:30:23;;;;;;;2.67;1.40;;;8.40;99.90;;;;;;5092123;28;20292;-80
2020/12/01 06:33:06;;;;;;;3.70;1.47;;;8.50;99.90;;;;;;5092585;28;20229;-80
2020/12/01 06:35:44;;;;;;;1.53;1.27;;;8.40;99.90;;;;;;5087593;28;20239;-80
2020/12/01 06:38:52;;;;;;;1.20;0.90;;;8.50;99.90;;;;;;5091136;28;20704;-80
2020/12/01 06:41:23;;;;;;;2.13;1.20;;;8.50;99.90;;;;;;5044083;28;20207;-81
2020/12/01 06:43:54;;;;;;;2.43;0.93;;;8.50;99.90;;;;;;5089004;28;20239;-81
2020/12/01 06:46:43;;;;;;;2.50;1.30;;;8.50;99.90;;;;;;5090134;28;20232;-80
2020/12/01 06:49:14;;;;;;;2.53;1.03;;;8.50;99.90;;;;;;5089247;28;20218;-82
2020/12/01 06:51:47;;;;;;;2.30;1.23;;;8.50;99.90;;;;;;5093390;28;20206;-80
2020/12/01 06:54:15;;;;;;;3.23;1.33;;;8.50;99.90;;;;;;5073797;28;20203;-81
2020/12/01 06:56:58;;;;;;;2.87;1.17;;;8.50;99.90;;;;;;5086180;28;21094;-82
2020/12/01 06:59:25;;;;;;;5.70;1.40;;;8.50;99.90;;;;;;5082619;28;20199;-82
2020/12/01 07:01:52;;;;;;;2.07;1.30;;;8.60;99.90;;;;;;5084096;28;20607;-81
2020/12/01 07:04:25;;;;;;;3.27;1.50;;;8.60;99.90;;;;;;5058532;28;20215;-81
2020/12/01 07:06:51;;;;;;;2.50;1.67;;;8.60;99.90;;;;;;5081889;28;20202;-80
2020/12/01 07:09:24;;;;;;;2.63;1.00;;;8.60;99.90;;;;;;5081579;28;20238;-81
2020/12/01 07:12:15;;;;;;;3.17;0.53;;;8.60;99.90;;;;;;5088484;28;20460;-81
2020/12/01 07:14:57;;;;;;;1.63;0.50;;;8.50;99.90;;;;;;5090034;28;20622;-82
2020/12/01 07:17:36;;;;;;;0.60;0.20;;;8.50;99.90;;;;;;5087176;28;20218;-81
2020/12/01 07:21:01;;;;;;;2.17;0.40;;;8.50;99.90;;;;;;5085552;28;20203;-82
2020/12/01 07:23:36;;;;;;;1.57;0.30;;;8.50;99.90;;;;;;5001256;28;20250;-82
2020/12/01 07:26:25;;;;;;;1.90;0.50;;;8.50;99.90;;;;;;5007292;28;20348;-82
2020/12/01 07:29:08;;;;;;;0.57;0.37;;;8.40;99.90;;;;;;5004477;28;20755;-82
2020/12/01 07:31:36;;;;;;;3.23;0.47;;;8.40;99.90;;;;;;4992267;28;20380;-82
2020/12/01 07:34:28;;;;;;;2.63;0.77;;;8.40;99.90;;;;;;4996915;28;20205;-83
2020/12/01 07:37:13;;;;;;;5.40;1.37;;;8.40;99.90;;;;;;4993197;28;20762;-83
2020/12/01 07:39:52;;;;;;;5.10;1.13;;;8.40;99.90;;;;;;5006436;28;20209;-83
2020/12/01 07:42:22;;;;;;;11.50;1.20;;;8.40;99.90;;;;;;4983948;28;20305;-82
2020/12/01 07:44:49;;;;;;;6.27;1.00;;;8.40;99.90;;;;;;5006178;28;20234;-82
2020/12/01 07:47:18;;;;;;;1.47;0.93;;;8.30;99.90;;;;;;5006571;28;20201;-82
2020/12/01 07:49:59;;;;;;;15.27;1.57;;;8.40;99.90;;;;;;5001883;28;20236;-82
2020/12/01 07:52:30;;;;;;;9.43;1.40;;;8.30;99.90;;;;;;4991246;28;20252;-83
2020/12/01 07:55:23;;;;;;;11.60;1.17;;;8.30;99.90;;;;;;5094403;28;20266;-82
2020/12/01 07:57:58;;;;;;;7.73;1.67;;;8.30;99.90;;;;;;5087675;28;20647;-83
2020/12/01 08:00:25;;;;;;;10.67;1.73;;;8.30;99.90;;;;;;5077802;28;20282;-82
2020/12/01 08:03:03;;;;;;;7.73;1.57;;;8.30;99.90;;;;;;5086153;28;20273;-83
2020/12/01 08:05:30;;;;;;;8.23;1.70;;;8.30;99.90;;;;;;5085914;28;20301;-83
2020/12/01 08:07:57;;;;;;;14.57;2.00;;;8.30;99.90;;;;;;5078468;28;20270;-82
2020/12/01 08:10:25;;;;;;;7.40;1.77;;;8.40;99.90;;;;;;5059323;28;20691;-82
2020/12/01 08:12:54;;;;;;;9.50;1.73;;;8.40;99.90;;;;;;5056159;28;20256;-82
2020/12/01 08:15:22;;;;;;;12.20;2.20;;;8.40;99.90;;;;;;5068167;28;20210;-82
2020/12/01 08:17:51;;;;;;;14.03;2.90;;;8.40;99.90;;;;;;5066088;28;20207;-83
2020/12/01 08:20:24;;;;;;;18.60;3.10;;;8.40;99.90;;;;;;5050635;28;20208;-83
2020/12/01 08:22:58;;;;;;;8.83;2.43;;;8.50;99.90;;;;;;5064735;28;20207;-83
2020/12/01 08:25:41;;;;;;;12.53;2.53;;;8.40;99.90;;;;;;5067412;28;20301;-81
2020/12/01 08:28:26;;;;;;;9.13;2.03;;;8.40;99.90;;;;;;5069860;28;20216;-81
2020/12/01 08:31:12;;;;;;;11.47;2.23;;;8.50;99.90;;;;;;5081544;28;20194;-81
2020/12/01 08:33:58;;;;;;;19.13;2.47;;;8.50;99.90;;;;;;5060550;28;20276;-82
2020/12/01 08:37:00;;;;;;;16.73;2.03;;;8.50;99.90;;;;;;5085647;28;20273;-81
2020/12/01 08:39:51;;;;;;;12.20;2.10;;;8.50;99.90;;;;;;5051505;28;20631;-82
2020/12/01 08:42:51;;;;;;;15.57;2.93;;;8.50;99.90;;;;;;5063431;28;20291;-81
2020/12/01 08:45:36;;;;;;;15.50;2.33;;;8.60;99.90;;;;;;5084530;28;20204;-81
2020/12/01 08:48:05;;;;;;;11.57;2.67;;;8.60;99.90;;;;;;5062418;28;20205;-81
2020/12/01 08:50:37;;;;;;;16.63;2.40;;;8.60;99.90;;;;;;5067128;28;20658;-83
2020/12/01 08:53:11;;;;;;;9.27;1.90;;;8.60;99.90;;;;;;5079038;28;20276;-82
2020/12/01 08:55:51;;;;;;;20.47;3.47;;;8.60;99.90;;;;;;5060316;28;20252;-83
2020/12/01 08:58:26;;;;;;;18.23;2.00;;;8.60;99.90;;;;;;5067410;28;20232;-81
2020/12/01 09:01:04;;;;;;;13.60;2.90;;;8.60;99.90;;;;;;5064958;28;21183;-81
2020/12/01 09:03:32;;;;;;;11.60;2.17;;;8.60;99.90;;;;;;5063105;28;20200;-81
2020/12/01 09:06:03;;;;;;;15.93;2.17;;;8.60;99.90;;;;;;5070651;28;20256;-81
2020/12/01 09:08:41;;;;;;;12.63;1.77;;;8.70;99.90;;;;;;5068851;28;20211;-81
2020/12/01 09:13:58;;;;;;;19.10;2.73;;;8.70;99.90;;;;;;5077821;28;20583;-80
2020/12/01 09:16:45;;;;;;;16.50;2.97;;;8.70;99.90;;;;;;5084383;28;20276;-79
2020/12/01 09:21:58;;;;;;;15.20;3.10;;;8.60;99.90;;;;;;5091106;28;20194;-81
2020/12/01 09:24:27;;;;;;;9.77;1.80;;;8.60;99.90;;;;;;5045176;28;20205;-80
2020/12/01 09:27:07;;;;;;;11.10;2.73;;;8.60;99.90;;;;;;5081691;28;20214;-81
2020/12/01 09:29:34;;;;;;;6.93;2.10;;;8.60;99.90;;;;;;5086277;28;20218;-80
2020/12/01 09:32:05;;;;;;;18.03;3.50;;;8.50;99.90;;;;;;5090404;28;20217;-81
2020/12/01 09:34:33;;;;;;;10.77;2.23;;;8.50;99.90;;;;;;5084363;28;20209;-80
2020/12/01 09:37:02;;;;;;;18.47;2.97;;;8.60;99.90;;;;;;5069648;28;20568;-78
2020/12/01 09:39:30;;;;;;;14.90;2.57;;;8.60;99.90;;;;;;5055381;28;20198;-80
2020/12/01 09:42:05;;;;;;;16.27;2.60;;;8.60;99.90;;;;;;5071123;28;20276;-79
2020/12/01 09:47:39;;;;;;;14.63;2.27;;;8.70;99.90;;;;;;5072565;28;20277;-80
2020/12/01 09:50:08;;;;;;;17.17;2.63;;;8.70;99.90;;;;;;5065476;28;20246;-79
2020/12/01 10:04:55;;;;;;;17.57;3.40;;;9.00;99.90;;;;;;5082386;28;20762;-81
2020/12/01 10:36:00;;;;;;;13.43;2.33;;;9.20;99.90;;;;;;5054721;28;20212;-81
2020/12/01 10:38:29;;;;;;;10.13;2.10;;;9.10;99.90;;;;;;5064173;28;20276;-80
2020/12/01 10:40:56;;;;;;;18.23;1.80;;;9.10;99.90;;;;;;5067651;28;20251;-81
2020/12/01 10:43:22;;;;;;;12.30;1.70;;;9.20;99.90;;;;;;5054635;28;20206;-81
2020/12/01 10:45:49;;;;;;;11.67;1.93;;;9.20;99.90;;;;;;5065294;28;20210;-78
2020/12/01 10:48:19;;;;;;;10.40;1.67;;;9.20;99.90;;;;;;5088958;28;20288;-79
2020/12/01 10:50:46;;;;;;;12.33;3.07;;;9.30;99.90;;;;;;5068678;28;20248;-80
2020/12/01 10:53:13;;;;;;;6.20;1.83;;;9.30;99.90;;;;;;5064846;28;20242;-78
2020/12/01 10:55:39;;;;;;;10.50;2.23;;;9.30;99.90;;;;;;5064218;28;20273;-79
2020/12/01 10:58:05;;;;;;;7.93;1.70;;;9.30;99.90;;;;;;5052413;28;20197;-80
2020/12/01 11:00:32;;;;;;;10.00;2.30;;;9.30;99.90;;;;;;5060564;28;20240;-78
2020/12/01 11:02:59;;;;;;;12.67;2.10;;;9.30;99.90;;;;;;5049817;28;21232;-79
2020/12/01 11:05:28;;;;;;;10.87;2.27;;;9.40;99.90;;;;;;5080439;28;20307;-82
2020/12/01 11:07:55;;;;;;;7.90;1.40;;;9.40;99.90;;;;;;5066370;28;20221;-80
2020/12/01 11:10:22;;;;;;;12.77;2.50;;;9.40;99.90;;;;;;5080012;28;20290;-79
2020/12/01 11:12:49;;;;;;;10.90;1.57;;;9.40;99.90;;;;;;5074292;28;20209;-78
2020/12/01 11:15:16;;;;;;;13.40;1.90;;;9.40;99.90;;;;;;5045705;28;20201;-78
2020/12/01 11:17:42;;;;;;;9.37;1.87;;;9.40;99.90;;;;;;5051150;28;20595;-80
2020/12/01 11:20:11;;;;;;;9.73;2.20;;;9.60;99.90;;;;;;5053103;28;20306;-78
2020/12/01 11:22:38;;;;;;;6.83;1.73;;;9.50;99.90;;;;;;5080768;28;20210;-79
2020/12/01 11:25:05;;;;;;;7.47;1.30;;;9.60;99.90;;;;;;5049661;28;20613;-79
2020/12/01 11:27:32;;;;;;;10.37;1.97;;;9.60;99.90;;;;;;5081022;28;20215;-79
2020/12/01 11:29:58;;;;;;;10.73;1.93;;;9.60;99.90;;;;;;5067531;28;20667;-78
2020/12/01 11:32:25;;;;;;;8.43;1.83;;;9.60;99.90;;;;;;5075988;28;20211;-77
2020/12/01 11:34:51;;;;;;;7.17;1.47;;;9.50;99.90;;;;;;5056623;28;20366;-79
2020/12/01 11:37:17;;;;;;;8.40;1.70;;;9.60;99.90;;;;;;5068792;28;20195;-78
2020/12/01 11:39:44;;;;;;;9.10;1.70;;;9.60;99.90;;;;;;5052958;28;20216;-80
2020/12/01 11:42:10;;;;;;;9.47;1.20;;;9.70;99.90;;;;;;5049255;28;20286;-79
2020/12/01 11:44:36;;;;;;;9.13;1.60;;;9.60;99.90;;;;;;5064640;28;20291;-79
2020/12/01 11:47:03;;;;;;;9.00;2.07;;;9.60;99.90;;;;;;5087189;28;20633;-78
2020/12/01 11:49:29;;;;;;;13.80;1.83;;;9.60;99.90;;;;;;5073715;28;20228;-79
2020/12/01 11:51:55;;;;;;;14.10;2.13;;;9.60;99.90;;;;;;5063195;28;20272;-80
2020/12/01 11:54:22;;;;;;;9.07;1.73;;;9.70;99.90;;;;;;5085816;28;20200;-81
2020/12/01 11:56:49;;;;;;;14.67;2.40;;;9.60;99.90;;;;;;5064619;28;20296;-82
2020/12/01 11:59:15;;;;;;;7.33;1.57;;;9.60;99.90;;;;;;5050536;28;20203;-82
2020/12/01 12:01:42;;;;;;;8.53;2.40;;;9.70;99.90;;;;;;5051913;28;20624;-82
2020/12/01 12:04:09;;;;;;;5.57;2.23;;;9.70;99.90;;;;;;5029084;28;20227;-83
2020/12/01 12:06:35;;;;;;;12.70;2.73;;;9.60;99.90;;;;;;5065399;28;20563;-82
2020/12/01 12:09:04;;;;;;;10.70;2.13;;;9.70;99.90;;;;;;5052933;28;20245;-81
2020/12/01 12:11:31;;;;;;;11.10;1.83;;;9.80;99.90;;;;;;5059159;28;20606;-81
2020/12/01 12:13:59;;;;;;;7.10;1.70;;;9.90;99.90;;;;;;5051216;28;20191;-80
2020/12/01 12:16:25;;;;;;;13.50;2.43;;;10.00;99.90;;;;;;5069108;28;20197;-81
2020/12/01 12:18:52;;;;;;;9.93;2.13;;;9.90;99.90;;;;;;5087334;28;20206;-83
2020/12/01 12:21:18;;;;;;;7.33;1.73;;;10.00;99.90;;;;;;5049855;28;20220;-83
2020/12/01 12:23:46;;;;;;;10.90;1.90;;;10.00;99.90;;;;;;5051037;28;21073;-81
2020/12/01 12:26:14;;;;;;;7.13;1.63;;;9.90;99.90;;;;;;5064261;28;20623;-82
2020/12/01 12:28:40;;;;;;;7.70;1.80;;;10.00;99.90;;;;;;5063065;28;20222;-84
2020/12/01 12:31:08;;;;;;;9.03;1.90;;;10.00;99.90;;;;;;5050306;28;20286;-83
2020/12/01 12:33:34;;;;;;;4.13;1.30;;;9.90;99.90;;;;;;5084380;28;20196;-83
2020/12/01 12:36:01;;;;;;;10.70;1.63;;;9.90;99.90;;;;;;5069274;28;20231;-79
2020/12/01 12:38:29;;;;;;;10.73;1.83;;;9.90;99.90;;;;;;5084337;28;20202;-81
2020/12/01 12:40:57;;;;;;;9.93;2.00;;;9.90;99.90;;;;;;5049120;28;20205;-82
2020/12/01 12:43:24;;;;;;;9.43;1.73;;;9.90;99.90;;;;;;5068447;28;20231;-80
2020/12/01 12:45:51;;;;;;;8.87;1.73;;;9.90;99.90;;;;;;5077721;28;20284;-81
2020/12/01 12:48:20;;;;;;;13.30;1.97;;;9.90;99.90;;;;;;5068895;28;20257;-83
2020/12/01 12:50:46;;;;;;;14.90;1.67;;;9.90;99.90;;;;;;5080684;28;20235;-81
2020/12/01 12:53:12;;;;;;;8.67;1.70;;;9.90;99.90;;;;;;5055998;28;20222;-81
2020/12/01 12:55:39;;;;;;;4.80;0.87;;;9.80;99.90;;;;;;5048083;28;20195;-81
2020/12/01 12:58:05;;;;;;;7.97;1.70;;;9.80;99.90;;;;;;5086548;28;20352;-81
2020/12/01 13:00:32;;;;;;;18.23;2.77;;;9.90;99.90;;;;;;5081207;28;20655;-81
2020/12/01 13:03:01;;;;;;;8.03;1.67;;;9.90;99.90;;;;;;5088655;28;20210;-82
2020/12/01 13:05:28;;;;;;;7.77;1.97;;;9.90;99.90;;;;;;5067399;28;20626;-82
2020/12/01 13:07:55;;;;;;;11.97;2.03;;;9.90;99.90;;;;;;5050826;28;20230;-80
2020/12/01 13:10:21;;;;;;;11.47;1.70;;;10.00;99.90;;;;;;5060338;28;20319;-76
2020/12/01 13:12:47;;;;;;;11.27;1.43;;;10.00;99.90;;;;;;5047568;28;20207;-79
2020/12/01 13:15:15;;;;;;;10.70;1.87;;;10.00;99.90;;;;;;5053361;28;20210;-80
2020/12/01 13:17:44;;;;;;;14.70;2.20;;;10.00;99.90;;;;;;5080433;28;20628;-81
2020/12/01 13:20:23;;;;;;;7.03;1.80;;;10.10;99.90;;;;;;5057095;28;20196;-83
2020/12/01 13:22:50;;;;;;;12.37;2.27;;;10.00;99.90;;;;;;5069294;28;20206;-81
2020/12/01 13:25:17;;;;;;;19.00;3.03;;;10.10;99.90;;;;;;5057403;28;20824;-82
2020/12/01 13:27:43;;;;;;;11.50;2.10;;;10.10;99.90;;;;;;5067575;28;20202;-80
2020/12/01 13:30:12;;;;;;;11.73;2.23;;;10.10;99.90;;;;;;5037967;28;20212;-79
2020/12/01 13:32:38;;;;;;;10.57;1.87;;;10.10;99.90;;;;;;5052168;28;20212;-81
2020/12/01 13:35:06;;;;;;;9.20;1.83;;;10.10;99.90;;;;;;5047723;28;20710;-78
2020/12/01 13:37:33;;;;;;;5.43;1.30;;;10.00;99.90;;;;;;5065963;28;20250;-81
2020/12/01 13:39:59;;;;;;;13.17;2.47;;;10.00;99.90;;;;;;5047377;28;20231;-80
2020/12/01 13:42:26;;;;;;;13.40;2.60;;;10.00;99.90;;;;;;5068921;28;22049;-80
2020/12/01 13:44:52;;;;;;;17.17;2.00;;;10.10;99.90;;;;;;5064157;28;20542;-78
2020/12/01 13:47:19;;;;;;;16.50;3.00;;;10.00;99.90;;;;;;5065896;28;20220;-82
2020/12/01 13:49:46;;;;;;;10.83;2.50;;;10.00;99.90;;;;;;5067691;28;20242;-83
2020/12/01 13:52:13;;;;;;;11.90;1.30;;;10.00;99.90;;;;;;5087307;28;20256;-80
2020/12/01 13:54:39;;;;;;;11.43;2.90;;;10.00;99.90;;;;;;5080114;28;20219;-81
2020/12/01 13:57:06;;;;;;;11.93;2.80;;;10.00;99.90;;;;;;5081247;28;20227;-80
2020/12/01 13:59:32;;;;;;;6.57;1.60;;;10.00;99.90;;;;;;5081733;28;20220;-80
2020/12/01 14:01:59;;;;;;;11.80;2.13;;;10.10;99.90;;;;;;5068195;28;20206;-80
2020/12/01 14:04:26;;;;;;;11.77;2.23;;;10.10;99.90;;;;;;5079902;28;20208;-77